createdAt,value
2022-08-01T00:00:44.759Z,3.00
2022-08-01T00:05:48.120Z,2.80
2022-08-01T00:10:49.994Z,1.90
2022-08-01T00:15:54.153Z,2.90
2022-08-01T00:20:56.440Z,3.50
2022-08-01T00:25:58.596Z,5.70
2022-08-01T00:31:00.883Z,2.60
2022-08-01T00:36:02.859Z,4.70
2022-08-01T00:41:04.639Z,3.10
2022-08-01T00:46:06.615Z,4.10
2022-08-01T00:51:10.036Z,3.60
2022-08-01T00:56:12.125Z,2.60
2022-08-01T01:01:14.631Z,2.60
2022-08-01T01:06:52.015Z,5.70
2022-08-01T01:12:05.886Z,3.10
2022-08-01T01:17:10.105Z,3.10
2022-08-01T01:22:56.033Z,4.60
2022-08-01T01:28:42.230Z,3.90
2022-08-01T01:33:45.130Z,3.90
2022-08-01T01:38:52.427Z,4.70
2022-08-01T01:43:56.151Z,3.90
2022-08-01T01:49:00.966Z,3.80
2022-08-01T01:54:05.542Z,5.40
2022-08-01T01:59:07.527Z,5.30
2022-08-01T02:04:10.933Z,9.30
2022-08-01T02:09:18.998Z,5.30
2022-08-01T02:14:24.002Z,3.30
2022-08-01T02:19:26.440Z,4.20
2022-08-01T02:25:21.148Z,4.20
2022-08-01T02:30:26.440Z,6.20
2022-08-01T02:35:33.403Z,6.40
2022-08-01T02:40:44.260Z,5.40
2022-08-01T02:45:54.673Z,4.80
2022-08-01T02:51:01.741Z,5.70
2022-08-01T02:56:09.554Z,7.10
2022-08-01T03:01:14.557Z,5.10
2022-08-01T03:06:18.629Z,4.50
2022-08-01T03:11:22.872Z,6.50
2022-08-01T03:16:27.604Z,6.30
2022-08-01T03:21:32.534Z,4.50
2022-08-01T03:26:37.333Z,5.30
2022-08-01T03:31:44.086Z,7.50
2022-08-01T03:37:26.835Z,5.70
2022-08-01T03:42:35.191Z,7.70
2022-08-01T03:52:49.598Z,8.40
2022-08-01T03:57:52.812Z,7.00
2022-08-01T04:02:55.359Z,7.40
2022-08-01T04:07:57.364Z,7.80
2022-08-01T04:12:59.831Z,6.60
2022-08-01T04:18:01.711Z,9.60
2022-08-01T04:23:04.610Z,7.60
2022-08-01T04:28:11.572Z,7.70
2022-08-01T04:33:17.949Z,8.50
2022-08-01T04:38:24.788Z,8.40
2022-08-01T04:43:26.656Z,7.10
2022-08-01T04:48:29.866Z,6.40
2022-08-01T04:53:33.187Z,9.50
2022-08-01T04:58:35.163Z,8.60
2022-08-01T05:03:39.172Z,8.60
2022-08-01T05:08:42.090Z,7.10
2022-08-01T05:13:43.859Z,7.10
2022-08-01T05:18:49.363Z,6.00
2022-08-01T05:23:51.915Z,7.50
2022-08-01T05:28:53.823Z,5.80
2022-08-01T05:33:56.393Z,7.90
2022-08-01T05:38:58.511Z,6.30
2022-08-01T05:44:00.449Z,8.10
2022-08-01T05:49:04.935Z,7.50
2022-08-01T05:54:09.461Z,10.20
2022-08-01T05:59:11.408Z,6.50
2022-08-01T06:04:13.197Z,6.50
2022-08-01T06:09:15.266Z,6.60
2022-08-01T06:14:17.141Z,7.90
2022-08-01T06:19:19.121Z,5.80
2022-08-01T06:24:23.454Z,5.40
2022-08-01T06:29:25.563Z,5.10
2022-08-01T06:34:27.415Z,5.80
2022-08-01T06:39:29.196Z,4.80
2022-08-01T06:44:31.065Z,5.20
2022-08-01T06:49:32.992Z,4.10
2022-08-01T06:54:34.962Z,3.30
2022-08-01T06:59:37.002Z,4.90
2022-08-01T07:04:38.991Z,4.00
2022-08-01T07:09:44.242Z,3.70
2022-08-01T07:14:46.127Z,3.30
2022-08-01T07:19:49.047Z,4.30
2022-08-01T07:24:54.406Z,2.60
2022-08-01T07:29:56.675Z,2.90
2022-08-01T07:34:58.683Z,3.00
2022-08-01T07:40:05.004Z,4.50
2022-08-01T07:45:08.372Z,2.40
2022-08-01T07:50:10.942Z,2.70
2022-08-01T07:55:16.422Z,4.30
2022-08-01T08:00:19.403Z,8.30
2022-08-01T08:05:58.557Z,2.40
2022-08-01T08:10:43.436Z,3.50
2022-08-01T08:15:48.427Z,4.20
2022-08-01T08:20:50.825Z,3.30
2022-08-01T08:25:52.741Z,1.10
2022-08-01T08:30:55.882Z,2.50
2022-08-01T08:35:57.931Z,3.90
2022-08-01T08:41:00.631Z,3.40
2022-08-01T08:46:03.227Z,3.20
2022-08-01T08:51:06.429Z,1.50
2022-08-01T08:56:12.168Z,1.80
2022-08-01T09:01:14.695Z,1.50
2022-08-01T09:06:16.681Z,1.80
2022-08-01T09:11:22.987Z,4.60
2022-08-01T09:16:25.954Z,1.70
2022-08-01T09:21:28.038Z,1.80
2022-08-01T09:26:35.381Z,2.60
2022-08-01T09:31:48.013Z,2.40
2022-08-01T09:36:56.506Z,1.70
2022-08-01T09:42:18.865Z,1.90
2022-08-01T09:47:37.131Z,1.40
2022-08-01T09:52:41.392Z,2.10
2022-08-01T09:57:56.728Z,2.60
2022-08-01T10:02:59.894Z,1.60
2022-08-01T10:08:13.307Z,1.20
2022-08-01T10:13:25.353Z,1.30
2022-08-01T10:18:43.025Z,1.70
2022-08-01T10:23:46.478Z,2.50
2022-08-01T10:28:54.831Z,2.80
2022-08-01T10:33:58.425Z,1.70
2022-08-01T10:39:01.637Z,1.20
2022-08-01T10:44:04.132Z,3.20
2022-08-01T10:49:15.176Z,4.20
2022-08-01T10:54:17.196Z,2.30
2022-08-01T10:59:49.684Z,1.20
2022-08-01T11:04:59.903Z,2.40
2022-08-01T11:10:24.248Z,2.20
2022-08-01T11:15:29.933Z,3.10
2022-08-01T11:20:41.894Z,2.00
2022-08-01T11:26:06.197Z,1.10
2022-08-01T11:31:11.259Z,2.40
2022-08-01T11:36:14.649Z,2.10
2022-08-01T11:41:17.929Z,1.90
2022-08-01T11:46:19.905Z,2.30
2022-08-01T11:51:25.730Z,1.10
2022-08-01T11:56:28.800Z,2.40
2022-08-01T12:01:31.273Z,2.20
2022-08-01T12:06:33.175Z,1.90
2022-08-01T12:11:37.210Z,1.10
2022-08-01T12:16:40.281Z,1.40
2022-08-01T12:21:42.201Z,2.20
2022-08-01T12:26:44.039Z,1.50
2022-08-01T12:31:45.826Z,3.30
2022-08-01T12:36:47.925Z,1.20
2022-08-01T12:41:50.387Z,1.00
2022-08-01T12:46:53.396Z,2.10
2022-08-01T12:51:57.167Z,2.00
2022-08-01T12:56:59.608Z,2.90
2022-08-01T13:02:09.520Z,2.10
2022-08-01T13:07:12.075Z,1.30
2022-08-01T13:12:14.258Z,2.90
2022-08-01T13:17:36.483Z,1.00
2022-08-01T13:22:38.581Z,2.10
2022-08-01T13:27:53.535Z,2.10
2022-08-01T13:33:01.084Z,3.00
2022-08-01T13:38:03.067Z,2.10
2022-08-01T13:43:04.933Z,2.00
2022-08-01T13:48:13.106Z,1.70
2022-08-01T13:53:21.486Z,1.40
2022-08-01T13:58:24.193Z,2.80
2022-08-01T14:03:26.577Z,2.00
2022-08-01T14:08:35.727Z,1.60
2022-08-01T14:13:39.154Z,2.00
2022-08-01T14:18:47.358Z,2.70
2022-08-01T14:23:49.253Z,2.30
2022-08-01T14:28:51.111Z,1.60
2022-08-01T14:33:53.092Z,1.70
2022-08-01T14:38:54.981Z,1.50
2022-08-01T14:44:03.097Z,1.70
2022-08-01T14:49:05.043Z,2.60
2022-08-01T14:54:07.089Z,1.40
2022-08-01T14:59:21.782Z,1.70
2022-08-01T15:04:24.429Z,2.10
2022-08-01T15:09:26.206Z,1.90
2022-08-01T15:14:46.625Z,2.60
2022-08-01T15:19:54.251Z,2.40
2022-08-01T15:24:59.209Z,2.50
2022-08-01T15:30:01.664Z,2.20
2022-08-01T15:35:04.197Z,2.30
2022-08-01T15:40:06.958Z,2.40
2022-08-01T15:45:20.676Z,5.30
2022-08-01T15:50:32.017Z,1.20
2022-08-01T15:55:38.600Z,3.30
2022-08-01T16:00:40.494Z,2.50
2022-08-01T16:05:44.334Z,1.40
2022-08-01T16:10:46.483Z,2.10
2022-08-01T16:15:48.463Z,3.00
2022-08-01T16:20:50.460Z,1.80
2022-08-01T16:25:52.966Z,4.40
2022-08-01T16:31:09.951Z,2.50
2022-08-01T16:36:17.379Z,1.10
2022-08-01T16:41:20.610Z,2.30
2022-08-01T16:46:26.248Z,2.80
2022-08-01T16:51:28.149Z,1.30
2022-08-01T16:56:35.122Z,1.00
2022-08-01T17:01:59.080Z,1.40
2022-08-01T17:06:59.564Z,2.00
2022-08-01T17:12:01.478Z,2.50
2022-08-01T17:17:03.578Z,1.40
2022-08-01T17:22:06.132Z,1.70
2022-08-01T17:27:12.554Z,2.90
2022-08-01T17:32:15.192Z,1.50
2022-08-01T17:37:17.104Z,5.70
2022-08-01T17:42:18.956Z,2.30
2022-08-01T17:47:41.237Z,2.60
2022-08-01T17:52:45.851Z,1.50
2022-08-01T17:57:47.766Z,2.40
2022-08-01T18:02:49.703Z,4.30
2022-08-01T18:08:01.458Z,2.60
2022-08-01T18:13:05.473Z,2.30
2022-08-01T18:18:08.441Z,5.90
2022-08-01T18:23:10.932Z,2.70
2022-08-01T18:28:16.415Z,3.80
2022-08-01T18:33:34.897Z,3.60
2022-08-01T18:38:37.355Z,3.70
2022-08-01T18:43:44.658Z,2.20
2022-08-01T18:48:48.088Z,4.00
2022-08-01T18:53:52.108Z,5.10
2022-08-01T18:58:55.310Z,2.10
2022-08-01T19:03:57.432Z,7.00
2022-08-01T19:09:02.458Z,7.70
2022-08-01T19:14:05.493Z,5.10
2022-08-01T19:19:10.703Z,4.50
2022-08-01T19:24:23.639Z,9.60
2022-08-01T19:29:35.620Z,14.20
2022-08-01T19:35:02.852Z,11.40
2022-08-01T19:40:06.123Z,6.30
2022-08-01T19:45:10.444Z,4.60
2022-08-01T19:50:13.369Z,5.30
2022-08-01T19:55:17.108Z,6.10
2022-08-01T20:00:23.970Z,7.10
2022-08-01T20:05:31.095Z,4.50
2022-08-01T20:10:37.760Z,2.90
2022-08-01T20:15:41.492Z,2.90
2022-08-01T20:20:46.781Z,3.00
2022-08-01T20:25:51.986Z,6.00
2022-08-01T20:31:02.325Z,9.00
2022-08-01T20:36:12.342Z,8.70
2022-08-01T20:41:28.568Z,6.90
2022-08-01T20:46:30.460Z,4.00
2022-08-01T20:51:39.248Z,5.70
2022-08-01T20:57:05.164Z,5.10
2022-08-01T21:02:51.137Z,5.60
2022-08-01T21:08:03.562Z,4.50
2022-08-01T21:13:20.852Z,7.30
2022-08-01T21:18:36.016Z,6.40
2022-08-01T21:24:00.292Z,10.90
2022-08-01T21:29:07.506Z,10.10
2022-08-01T21:34:11.854Z,6.00
2022-08-01T21:39:14.332Z,4.90
2022-08-01T21:44:17.940Z,6.00
2022-08-01T21:49:21.542Z,15.90
2022-08-01T21:54:44.936Z,3.90
2022-08-01T22:00:05.914Z,3.60
2022-08-01T22:05:13.165Z,4.00
2022-08-01T22:10:18.567Z,3.10
2022-08-01T22:15:25.503Z,2.90
2022-08-01T22:20:47.898Z,3.30
2022-08-01T22:25:55.494Z,4.30
2022-08-01T22:30:59.420Z,3.30
2022-08-01T22:36:04.244Z,4.50
2022-08-01T22:41:16.787Z,4.60
2022-08-01T22:47:03.014Z,6.40
2022-08-01T22:52:19.497Z,3.80
2022-08-01T22:57:34.841Z,2.70
2022-08-01T23:02:55.065Z,4.50
2022-08-01T23:08:01.202Z,2.60
2022-08-01T23:13:04.447Z,2.50
2022-08-01T23:18:07.749Z,2.70
2022-08-01T23:23:10.935Z,2.70
2022-08-01T23:28:14.551Z,3.50
2022-08-01T23:33:16.531Z,3.70
2022-08-01T23:38:19.961Z,2.80
2022-08-01T23:43:22.017Z,3.30
2022-08-01T23:48:24.617Z,4.80
2022-08-01T23:53:30.989Z,4.50
2022-08-01T23:58:33.694Z,3.60
